Terminal Aerodrome Forecast
Issued by NWS

Home | Current Version | Previous Version | Graphics & Text | Print | Product List | Glossary On
Versions: 1 2 3 4 5 6 7 8 9 10 11 12 13 14 15 16 17
000
FTUS43 KBIS 021159 AAA
TAFMOT
TAF AMD
KMOT 021159Z 0212/0312 16004KT 5SM BR SKC
      TEMPO 0212/0214 2SM BR
     FM021400 16004KT P6SM SKC
     FM021800 15012G20KT P6SM SKC
     FM030100 16007KT P6SM SKC=

USA.gov is the U.S. government's official web portal to all federal, state and local government web resources and services.